sensor_id;sensor_type;location;lat;lon;timestamp;temperature;humidity
4090;DHT22;2059;48.538;12.146;2024-03-08T00:03:03;4.30;99.90
4090;DHT22;2059;48.538;12.146;2024-03-08T00:08:05;4.10;99.90
4090;DHT22;2059;48.538;12.146;2024-03-08T00:13:11;4.40;99.90
4090;DHT22;2059;48.538;12.146;2024-03-08T00:18:13;4.50;99.90
4090;DHT22;2059;48.538;12.146;2024-03-08T00:23:15;4.40;99.90
4090;DHT22;2059;48.538;12.146;2024-03-08T00:28:18;4.40;99.90
4090;DHT22;2059;48.538;12.146;2024-03-08T00:33:19;4.50;99.90
4090;DHT22;2059;48.538;12.146;2024-03-08T00:38:21;4.30;99.90
4090;DHT22;2059;48.538;12.146;2024-03-08T00:43:24;4.30;99.90
4090;DHT22;2059;48.538;12.146;2024-03-08T00:48:26;4.50;99.90
4090;DHT22;2059;48.538;12.146;2024-03-08T00:53:28;4.40;99.90
4090;DHT22;2059;48.538;12.146;2024-03-08T00:58:31;4.20;99.90
4090;DHT22;2059;48.538;12.146;2024-03-08T01:03:33;4.30;99.90
4090;DHT22;2059;48.538;12.146;2024-03-08T01:08:34;4.30;99.90
4090;DHT22;2059;48.538;12.146;2024-03-08T01:13:40;4.30;99.90
4090;DHT22;2059;48.538;12.146;2024-03-08T01:18:41;4.20;99.90
4090;DHT22;2059;48.538;12.146;2024-03-08T01:23:43;4.10;99.90
4090;DHT22;2059;48.538;12.146;2024-03-08T01:28:46;4.00;99.90
4090;DHT22;2059;48.538;12.146;2024-03-08T01:33:48;4.20;99.90
4090;DHT22;2059;48.538;12.146;2024-03-08T01:38:50;4.10;99.90
4090;DHT22;2059;48.538;12.146;2024-03-08T01:43:53;4.10;99.90
4090;DHT22;2059;48.538;12.146;2024-03-08T01:48:55;4.00;99.90
4090;DHT22;2059;48.538;12.146;2024-03-08T01:53:58;4.10;99.90
4090;DHT22;2059;48.538;12.146;2024-03-08T01:59:03;4.20;99.90
4090;DHT22;2059;48.538;12.146;2024-03-08T02:04:08;4.20;99.90
4090;DHT22;2059;48.538;12.146;2024-03-08T02:09:09;4.00;99.90
4090;DHT22;2059;48.538;12.146;2024-03-08T02:14:12;3.90;99.90
4090;DHT22;2059;48.538;12.146;2024-03-08T02:19:14;3.70;99.90
4090;DHT22;2059;48.538;12.146;2024-03-08T02:24:18;3.80;99.90
4090;DHT22;2059;48.538;12.146;2024-03-08T02:29:20;3.70;99.90
4090;DHT22;2059;48.538;12.146;2024-03-08T02:34:22;3.40;99.90
4090;DHT22;2059;48.538;12.146;2024-03-08T02:39:25;3.50;99.90
4090;DHT22;2059;48.538;12.146;2024-03-08T02:44:28;3.60;99.90
4090;DHT22;2059;48.538;12.146;2024-03-08T02:49:30;3.70;99.90
4090;DHT22;2059;48.538;12.146;2024-03-08T02:54:33;3.70;99.90
4090;DHT22;2059;48.538;12.146;2024-03-08T02:59:35;3.60;99.90
4090;DHT22;2059;48.538;12.146;2024-03-08T03:04:40;3.80;99.90
4090;DHT22;2059;48.538;12.146;2024-03-08T03:09:43;3.80;99.90
4090;DHT22;2059;48.538;12.146;2024-03-08T03:14:44;3.60;99.90
4090;DHT22;2059;48.538;12.146;2024-03-08T03:19:46;3.60;99.90
4090;DHT22;2059;48.538;12.146;2024-03-08T03:24:49;3.90;99.90
4090;DHT22;2059;48.538;12.146;2024-03-08T03:29:52;4.00;99.90
4090;DHT22;2059;48.538;12.146;2024-03-08T03:34:53;4.10;99.90
4090;DHT22;2059;48.538;12.146;2024-03-08T03:39:56;3.90;99.90
4090;DHT22;2059;48.538;12.146;2024-03-08T03:44:58;4.00;99.90
4090;DHT22;2059;48.538;12.146;2024-03-08T03:50:00;3.90;99.90
4090;DHT22;2059;48.538;12.146;2024-03-08T03:55:05;3.90;99.90
4090;DHT22;2059;48.538;12.146;2024-03-08T04:00:09;3.90;99.90
4090;DHT22;2059;48.538;12.146;2024-03-08T04:05:11;4.10;99.90
4090;DHT22;2059;48.538;12.146;2024-03-08T04:10:14;3.90;99.90
4090;DHT22;2059;48.538;12.146;2024-03-08T04:15:16;4.00;99.90
4090;DHT22;2059;48.538;12.146;2024-03-08T04:20:17;4.10;99.90
4090;DHT22;2059;48.538;12.146;2024-03-08T04:25:20;3.80;99.90
4090;DHT22;2059;48.538;12.146;2024-03-08T04:30:22;4.10;99.90
4090;DHT22;2059;48.538;12.146;2024-03-08T04:35:24;4.30;99.90
4090;DHT22;2059;48.538;12.146;2024-03-08T04:40:27;3.90;99.90
4090;DHT22;2059;48.538;12.146;2024-03-08T04:45:29;4.00;99.90
4090;DHT22;2059;48.538;12.146;2024-03-08T04:50:31;3.90;99.90
4090;DHT22;2059;48.538;12.146;2024-03-08T04:55:34;3.90;99.90
4090;DHT22;2059;48.538;12.146;2024-03-08T05:00:35;3.90;99.90
4090;DHT22;2059;48.538;12.146;2024-03-08T05:05:37;3.70;99.90
4090;DHT22;2059;48.538;12.146;2024-03-08T05:10:40;3.80;99.90
4090;DHT22;2059;48.538;12.146;2024-03-08T05:15:42;3.80;99.90
4090;DHT22;2059;48.538;12.146;2024-03-08T05:20:45;3.60;99.90
4090;DHT22;2059;48.538;12.146;2024-03-08T05:25:50;3.60;99.90
4090;DHT22;2059;48.538;12.146;2024-03-08T05:30:52;3.60;99.90
4090;DHT22;2059;48.538;12.146;2024-03-08T05:35:53;3.60;99.90
4090;DHT22;2059;48.538;12.146;2024-03-08T05:40:57;3.40;99.90
4090;DHT22;2059;48.538;12.146;2024-03-08T05:45:58;3.20;99.90
4090;DHT22;2059;48.538;12.146;2024-03-08T05:51:00;3.40;99.90
4090;DHT22;2059;48.538;12.146;2024-03-08T05:56:04;3.50;99.90
4090;DHT22;2059;48.538;12.146;2024-03-08T06:01:06;3.50;99.90
4090;DHT22;2059;48.538;12.146;2024-03-08T06:06:08;3.50;99.90
4090;DHT22;2059;48.538;12.146;2024-03-08T06:11:11;3.50;99.90
4090;DHT22;2059;48.538;12.146;2024-03-08T06:16:13;3.40;99.90
4090;DHT22;2059;48.538;12.146;2024-03-08T06:21:14;3.60;99.90
4090;DHT22;2059;48.538;12.146;2024-03-08T06:26:18;3.80;99.90
4090;DHT22;2059;48.538;12.146;2024-03-08T06:31:19;3.80;99.90
4090;DHT22;2059;48.538;12.146;2024-03-08T06:36:21;3.60;99.90
4090;DHT22;2059;48.538;12.146;2024-03-08T06:41:24;3.60;99.90
4090;DHT22;2059;48.538;12.146;2024-03-08T06:46:27;3.80;99.90
4090;DHT22;2059;48.538;12.146;2024-03-08T06:51:29;3.60;99.90
4090;DHT22;2059;48.538;12.146;2024-03-08T06:56:32;4.00;99.90
4090;DHT22;2059;48.538;12.146;2024-03-08T07:01:34;4.10;99.90
4090;DHT22;2059;48.538;12.146;2024-03-08T07:06:37;3.90;99.90
4090;DHT22;2059;48.538;12.146;2024-03-08T07:11:40;3.90;99.90
4090;DHT22;2059;48.538;12.146;2024-03-08T07:16:42;4.00;99.90
4090;DHT22;2059;48.538;12.146;2024-03-08T07:21:45;4.40;99.90
4090;DHT22;2059;48.538;12.146;2024-03-08T07:26:50;4.50;99.90
4090;DHT22;2059;48.538;12.146;2024-03-08T07:31:52;4.60;99.90
4090;DHT22;2059;48.538;12.146;2024-03-08T07:37:02;4.70;99.90
4090;DHT22;2059;48.538;12.146;2024-03-08T07:42:06;4.60;99.80
4090;DHT22;2059;48.538;12.146;2024-03-08T07:47:07;4.90;99.30
4090;DHT22;2059;48.538;12.146;2024-03-08T07:52:10;4.70;99.80
4090;DHT22;2059;48.538;12.146;2024-03-08T07:57:17;5.20;99.20
4090;DHT22;2059;48.538;12.146;2024-03-08T08:02:19;5.10;99.00
4090;DHT22;2059;48.538;12.146;2024-03-08T08:07:20;5.00;99.50
4090;DHT22;2059;48.538;12.146;2024-03-08T08:12:24;5.30;99.10
4090;DHT22;2059;48.538;12.146;2024-03-08T08:17:26;5.20;98.80
4090;DHT22;2059;48.538;12.146;2024-03-08T08:22:28;5.10;98.80
4090;DHT22;2059;48.538;12.146;2024-03-08T08:27:31;5.50;98.40
4090;DHT22;2059;48.538;12.146;2024-03-08T08:32:32;5.40;98.40
4090;DHT22;2059;48.538;12.146;2024-03-08T08:37:34;5.20;98.60
4090;DHT22;2059;48.538;12.146;2024-03-08T08:42:38;5.90;98.10
4090;DHT22;2059;48.538;12.146;2024-03-08T08:47:40;6.30;97.90
4090;DHT22;2059;48.538;12.146;2024-03-08T08:52:43;6.50;97.10
4090;DHT22;2059;48.538;12.146;2024-03-08T08:57:46;7.00;96.80
4090;DHT22;2059;48.538;12.146;2024-03-08T09:02:49;7.50;96.00
4090;DHT22;2059;48.538;12.146;2024-03-08T09:07:51;7.50;96.20
4090;DHT22;2059;48.538;12.146;2024-03-08T09:12:54;7.40;95.50
4090;DHT22;2059;48.538;12.146;2024-03-08T09:17:56;7.40;95.50
4090;DHT22;2059;48.538;12.146;2024-03-08T09:22:59;7.30;95.40
4090;DHT22;2059;48.538;12.146;2024-03-08T09:28:02;7.70;95.20
4090;DHT22;2059;48.538;12.146;2024-03-08T09:33:05;7.30;95.20
4090;DHT22;2059;48.538;12.146;2024-03-08T09:38:08;7.90;95.00
4090;DHT22;2059;48.538;12.146;2024-03-08T09:43:14;8.50;94.00
4090;DHT22;2059;48.538;12.146;2024-03-08T09:48:17;8.20;93.30
4090;DHT22;2059;48.538;12.146;2024-03-08T09:53:20;8.20;93.50
4090;DHT22;2059;48.538;12.146;2024-03-08T09:58:24;8.60;93.10
4090;DHT22;2059;48.538;12.146;2024-03-08T10:03:49;8.70;92.00
4090;DHT22;2059;48.538;12.146;2024-03-08T10:08:50;8.90;92.30
4090;DHT22;2059;48.538;12.146;2024-03-08T10:13:54;9.10;91.60
4090;DHT22;2059;48.538;12.146;2024-03-08T10:18:57;9.00;91.70
4090;DHT22;2059;48.538;12.146;2024-03-08T10:24:02;9.30;92.00
4090;DHT22;2059;48.538;12.146;2024-03-08T10:29:06;10.00;90.80
4090;DHT22;2059;48.538;12.146;2024-03-08T10:34:08;10.30;90.20
4090;DHT22;2059;48.538;12.146;2024-03-08T10:39:16;10.00;89.10
4090;DHT22;2059;48.538;12.146;2024-03-08T10:44:40;9.70;90.00
4090;DHT22;2059;48.538;12.146;2024-03-08T10:49:51;10.20;88.40
4090;DHT22;2059;48.538;12.146;2024-03-08T10:54:54;10.30;86.50
4090;DHT22;2059;48.538;12.146;2024-03-08T10:59:58;10.20;86.40
4090;DHT22;2059;48.538;12.146;2024-03-08T11:05:02;10.10;87.50
4090;DHT22;2059;48.538;12.146;2024-03-08T11:10:05;10.40;87.20
4090;DHT22;2059;48.538;12.146;2024-03-08T11:15:13;10.80;84.90
4090;DHT22;2059;48.538;12.146;2024-03-08T11:20:15;10.30;84.10
4090;DHT22;2059;48.538;12.146;2024-03-08T11:25:34;10.40;84.70
4090;DHT22;2059;48.538;12.146;2024-03-08T11:30:44;10.40;85.80
4090;DHT22;2059;48.538;12.146;2024-03-08T11:35:47;11.00;84.70
4090;DHT22;2059;48.538;12.146;2024-03-08T11:40:50;11.20;85.20
4090;DHT22;2059;48.538;12.146;2024-03-08T11:46:07;11.30;86.00
4090;DHT22;2059;48.538;12.146;2024-03-08T11:51:11;11.50;80.80
4090;DHT22;2059;48.538;12.146;2024-03-08T11:56:14;11.40;82.50
4090;DHT22;2059;48.538;12.146;2024-03-08T12:01:17;11.40;81.90
4090;DHT22;2059;48.538;12.146;2024-03-08T12:06:19;11.70;80.50
4090;DHT22;2059;48.538;12.146;2024-03-08T12:11:21;11.70;80.30
4090;DHT22;2059;48.538;12.146;2024-03-08T12:16:25;11.50;80.50
4090;DHT22;2059;48.538;12.146;2024-03-08T12:21:28;11.60;80.20
4090;DHT22;2059;48.538;12.146;2024-03-08T12:26:30;11.60;81.10
4090;DHT22;2059;48.538;12.146;2024-03-08T12:31:34;11.70;79.50
4090;DHT22;2059;48.538;12.146;2024-03-08T12:36:36;11.80;78.00
4090;DHT22;2059;48.538;12.146;2024-03-08T12:41:39;11.90;77.40
4090;DHT22;2059;48.538;12.146;2024-03-08T12:46:44;11.90;75.90
4090;DHT22;2059;48.538;12.146;2024-03-08T12:51:46;11.60;76.20
4090;DHT22;2059;48.538;12.146;2024-03-08T12:56:48;11.30;77.60
4090;DHT22;2059;48.538;12.146;2024-03-08T13:01:51;11.50;74.60
4090;DHT22;2059;48.538;12.146;2024-03-08T13:06:54;11.50;74.70
4090;DHT22;2059;48.538;12.146;2024-03-08T13:11:56;12.00;75.50
4090;DHT22;2059;48.538;12.146;2024-03-08T13:17:00;12.20;77.10
4090;DHT22;2059;48.538;12.146;2024-03-08T13:22:03;12.10;77.30
4090;DHT22;2059;48.538;12.146;2024-03-08T13:27:06;12.00;77.30
4090;DHT22;2059;48.538;12.146;2024-03-08T13:32:18;11.90;75.80
4090;DHT22;2059;48.538;12.146;2024-03-08T13:37:21;11.70;76.70
4090;DHT22;2059;48.538;12.146;2024-03-08T13:42:22;11.80;74.50
4090;DHT22;2059;48.538;12.146;2024-03-08T13:47:25;11.50;73.50
4090;DHT22;2059;48.538;12.146;2024-03-08T13:52:27;11.60;75.60
4090;DHT22;2059;48.538;12.146;2024-03-08T13:57:29;12.20;73.90
4090;DHT22;2059;48.538;12.146;2024-03-08T14:02:33;12.10;74.00
4090;DHT22;2059;48.538;12.146;2024-03-08T14:07:35;11.80;71.40
4090;DHT22;2059;48.538;12.146;2024-03-08T14:12:37;11.90;72.90
4090;DHT22;2059;48.538;12.146;2024-03-08T14:17:41;12.10;73.80
4090;DHT22;2059;48.538;12.146;2024-03-08T14:22:43;12.00;73.50
4090;DHT22;2059;48.538;12.146;2024-03-08T14:27:44;12.30;74.30
4090;DHT22;2059;48.538;12.146;2024-03-08T14:32:48;11.70;74.40
4090;DHT22;2059;48.538;12.146;2024-03-08T14:37:49;11.80;75.90
4090;DHT22;2059;48.538;12.146;2024-03-08T14:42:53;11.90;76.90
4090;DHT22;2059;48.538;12.146;2024-03-08T14:47:56;11.70;78.30
4090;DHT22;2059;48.538;12.146;2024-03-08T14:52:58;11.70;77.90
4090;DHT22;2059;48.538;12.146;2024-03-08T14:58:00;11.80;78.30
4090;DHT22;2059;48.538;12.146;2024-03-08T15:03:06;11.50;78.70
4090;DHT22;2059;48.538;12.146;2024-03-08T15:08:08;11.30;79.30
4090;DHT22;2059;48.538;12.146;2024-03-08T15:13:20;11.00;80.50
4090;DHT22;2059;48.538;12.146;2024-03-08T15:18:29;11.30;80.30
4090;DHT22;2059;48.538;12.146;2024-03-08T15:23:34;11.80;77.60
4090;DHT22;2059;48.538;12.146;2024-03-08T15:28:36;12.40;77.70
4090;DHT22;2059;48.538;12.146;2024-03-08T15:33:40;13.10;76.70
4090;DHT22;2059;48.538;12.146;2024-03-08T15:38:45;13.20;74.80
4090;DHT22;2059;48.538;12.146;2024-03-08T15:43:48;13.10;75.30
4090;DHT22;2059;48.538;12.146;2024-03-08T15:48:52;12.70;76.70
4090;DHT22;2059;48.538;12.146;2024-03-08T15:53:54;13.00;75.20
4090;DHT22;2059;48.538;12.146;2024-03-08T15:58:56;13.30;74.90
4090;DHT22;2059;48.538;12.146;2024-03-08T16:03:59;13.40;73.90
4090;DHT22;2059;48.538;12.146;2024-03-08T16:09:01;13.60;73.40
4090;DHT22;2059;48.538;12.146;2024-03-08T16:14:04;13.80;73.10
4090;DHT22;2059;48.538;12.146;2024-03-08T16:19:07;13.80;73.20
4090;DHT22;2059;48.538;12.146;2024-03-08T16:24:08;13.30;73.60
4090;DHT22;2059;48.538;12.146;2024-03-08T16:29:10;12.30;75.40
4090;DHT22;2059;48.538;12.146;2024-03-08T16:34:15;11.60;77.40
4090;DHT22;2059;48.538;12.146;2024-03-08T16:39:17;11.20;78.40
4090;DHT22;2059;48.538;12.146;2024-03-08T16:44:19;11.00;79.30
4090;DHT22;2059;48.538;12.146;2024-03-08T16:49:23;10.80;80.20
4090;DHT22;2059;48.538;12.146;2024-03-08T16:54:25;10.70;80.80
4090;DHT22;2059;48.538;12.146;2024-03-08T16:59:27;10.20;82.30
4090;DHT22;2059;48.538;12.146;2024-03-08T17:04:30;10.20;82.40
4090;DHT22;2059;48.538;12.146;2024-03-08T17:09:31;9.90;83.70
4090;DHT22;2059;48.538;12.146;2024-03-08T17:14:34;9.60;84.50
4090;DHT22;2059;48.538;12.146;2024-03-08T17:19:39;9.50;85.30
4090;DHT22;2059;48.538;12.146;2024-03-08T17:24:41;9.40;85.80
4090;DHT22;2059;48.538;12.146;2024-03-08T17:29:44;9.40;86.50
4090;DHT22;2059;48.538;12.146;2024-03-08T17:34:47;9.40;87.10
4090;DHT22;2059;48.538;12.146;2024-03-08T17:39:48;9.30;87.90
4090;DHT22;2059;48.538;12.146;2024-03-08T17:44:50;9.20;87.90
4090;DHT22;2059;48.538;12.146;2024-03-08T17:49:53;8.90;89.20
4090;DHT22;2059;48.538;12.146;2024-03-08T17:54:55;9.00;89.00
4090;DHT22;2059;48.538;12.146;2024-03-08T17:59:57;9.00;89.50
4090;DHT22;2059;48.538;12.146;2024-03-08T18:05:00;8.90;90.00
4090;DHT22;2059;48.538;12.146;2024-03-08T18:10:05;8.80;90.20
4090;DHT22;2059;48.538;12.146;2024-03-08T18:15:08;8.90;90.20
4090;DHT22;2059;48.538;12.146;2024-03-08T18:20:11;8.80;90.40
4090;DHT22;2059;48.538;12.146;2024-03-08T18:25:15;8.80;90.70
4090;DHT22;2059;48.538;12.146;2024-03-08T18:30:19;8.80;90.70
4090;DHT22;2059;48.538;12.146;2024-03-08T18:35:22;8.50;91.10
4090;DHT22;2059;48.538;12.146;2024-03-08T18:40:23;8.30;91.30
4090;DHT22;2059;48.538;12.146;2024-03-08T18:45:26;8.20;91.10
4090;DHT22;2059;48.538;12.146;2024-03-08T18:50:30;8.10;91.30
4090;DHT22;2059;48.538;12.146;2024-03-08T18:55:32;8.10;91.00
4090;DHT22;2059;48.538;12.146;2024-03-08T19:00:35;8.20;91.00
4090;DHT22;2059;48.538;12.146;2024-03-08T19:05:39;8.10;90.80
4090;DHT22;2059;48.538;12.146;2024-03-08T19:10:42;8.10;90.90
4090;DHT22;2059;48.538;12.146;2024-03-08T19:15:43;8.20;90.70
4090;DHT22;2059;48.538;12.146;2024-03-08T19:20:47;8.30;90.50
4090;DHT22;2059;48.538;12.146;2024-03-08T19:25:49;8.10;90.50
4090;DHT22;2059;48.538;12.146;2024-03-08T19:30:51;8.00;90.70
4090;DHT22;2059;48.538;12.146;2024-03-08T19:35:56;8.00;90.70
4090;DHT22;2059;48.538;12.146;2024-03-08T19:40:58;8.00;90.80
4090;DHT22;2059;48.538;12.146;2024-03-08T19:45:59;8.00;91.20
4090;DHT22;2059;48.538;12.146;2024-03-08T19:51:03;7.70;91.90
4090;DHT22;2059;48.538;12.146;2024-03-08T19:56:06;7.50;91.90
4090;DHT22;2059;48.538;12.146;2024-03-08T20:01:07;7.60;92.00
4090;DHT22;2059;48.538;12.146;2024-03-08T20:06:11;7.40;92.00
4090;DHT22;2059;48.538;12.146;2024-03-08T20:11:13;7.50;91.60
4090;DHT22;2059;48.538;12.146;2024-03-08T20:16:15;7.30;91.90
4090;DHT22;2059;48.538;12.146;2024-03-08T20:21:19;7.20;92.30
4090;DHT22;2059;48.538;12.146;2024-03-08T20:26:21;7.20;92.20
4090;DHT22;2059;48.538;12.146;2024-03-08T20:31:23;7.20;92.30
4090;DHT22;2059;48.538;12.146;2024-03-08T20:36:26;7.20;92.70
4090;DHT22;2059;48.538;12.146;2024-03-08T20:41:28;7.10;92.90
4090;DHT22;2059;48.538;12.146;2024-03-08T20:46:32;7.10;92.90
4090;DHT22;2059;48.538;12.146;2024-03-08T20:51:35;6.70;93.30
4090;DHT22;2059;48.538;12.146;2024-03-08T20:56:37;6.70;93.30
4090;DHT22;2059;48.538;12.146;2024-03-08T21:01:39;6.80;92.90
4090;DHT22;2059;48.538;12.146;2024-03-08T21:06:44;6.80;92.80
4090;DHT22;2059;48.538;12.146;2024-03-08T21:11:46;6.50;93.10
4090;DHT22;2059;48.538;12.146;2024-03-08T21:16:48;6.80;92.90
4090;DHT22;2059;48.538;12.146;2024-03-08T21:21:51;6.70;93.10
4090;DHT22;2059;48.538;12.146;2024-03-08T21:26:54;6.70;93.20
4090;DHT22;2059;48.538;12.146;2024-03-08T21:31:57;6.80;92.80
4090;DHT22;2059;48.538;12.146;2024-03-08T21:37:06;6.70;93.10
4090;DHT22;2059;48.538;12.146;2024-03-08T21:42:07;6.70;93.00
4090;DHT22;2059;48.538;12.146;2024-03-08T21:47:09;6.80;92.80
4090;DHT22;2059;48.538;12.146;2024-03-08T21:52:12;6.60;93.00
4090;DHT22;2059;48.538;12.146;2024-03-08T21:57:15;6.50;93.20
4090;DHT22;2059;48.538;12.146;2024-03-08T22:02:19;6.50;93.30
4090;DHT22;2059;48.538;12.146;2024-03-08T22:07:22;6.60;93.20
4090;DHT22;2059;48.538;12.146;2024-03-08T22:12:24;6.50;93.30
4090;DHT22;2059;48.538;12.146;2024-03-08T22:17:28;6.50;93.40
4090;DHT22;2059;48.538;12.146;2024-03-08T22:22:31;6.50;93.40
4090;DHT22;2059;48.538;12.146;2024-03-08T22:27:33;6.30;93.40
4090;DHT22;2059;48.538;12.146;2024-03-08T22:32:35;6.30;93.40
4090;DHT22;2059;48.538;12.146;2024-03-08T22:37:38;6.30;93.40
4090;DHT22;2059;48.538;12.146;2024-03-08T22:42:41;6.10;93.70
4090;DHT22;2059;48.538;12.146;2024-03-08T22:47:44;6.00;93.80
4090;DHT22;2059;48.538;12.146;2024-03-08T22:52:47;6.30;93.50
4090;DHT22;2059;48.538;12.146;2024-03-08T22:57:49;6.20;93.50
4090;DHT22;2059;48.538;12.146;2024-03-08T23:02:51;6.00;93.80
4090;DHT22;2059;48.538;12.146;2024-03-08T23:07:55;6.00;93.70
4090;DHT22;2059;48.538;12.146;2024-03-08T23:12:59;5.80;93.80
4090;DHT22;2059;48.538;12.146;2024-03-08T23:18:02;5.60;94.20
4090;DHT22;2059;48.538;12.146;2024-03-08T23:23:10;5.70;94.30
4090;DHT22;2059;48.538;12.146;2024-03-08T23:28:11;5.90;93.90
4090;DHT22;2059;48.538;12.146;2024-03-08T23:33:13;5.70;94.20
4090;DHT22;2059;48.538;12.146;2024-03-08T23:38:16;5.50;94.50
4090;DHT22;2059;48.538;12.146;2024-03-08T23:43:19;5.70;94.20
4090;DHT22;2059;48.538;12.146;2024-03-08T23:48:20;5.80;94.00
4090;DHT22;2059;48.538;12.146;2024-03-08T23:53:23;5.70;94.00
4090;DHT22;2059;48.538;12.146;2024-03-08T23:58:25;5.80;94.10
